Terminal Aerodrome Forecast
Issued by NWS Lake Charles, LA

Home | Current Version | Previous Version | Text Only | Print | Product List | Glossary On
Versions: 1 2 3 4 5 6 7 8 9 10 11 12 13 14 15 16
000
FTUS44 KLCH 011500 AAB
TAFAEX
TAF AMD
KAEX 011524Z 0115/0212 15008KT P6SM VCSH BKN012
     FM011700 15006KT P6SM VCSH SCT025 BKN050
     FM012300 15004KT P6SM FEW025 SCT100=

USA.gov is the U.S. government's official web portal to all federal, state and local government web resources and services.